createdAt,value
2022-11-17T01:21:14.665Z,9.43
2022-11-17T01:23:49.000Z,9.88
2022-11-17T01:26:26.674Z,10.48
2022-11-17T01:29:00.538Z,9.80
2022-11-17T01:31:39.861Z,9.48
2022-11-17T01:34:12.527Z,10.30
2022-11-17T01:37:03.742Z,10.88
2022-11-17T01:39:36.571Z,9.98
2022-11-17T01:42:21.844Z,9.50
2022-11-17T01:45:02.416Z,9.10
2022-11-17T01:50:40.747Z,10.15
2022-11-17T01:53:16.134Z,9.85
2022-11-17T01:55:53.489Z,10.05
2022-11-17T01:58:30.995Z,10.25
2022-11-17T02:01:03.501Z,9.78
2022-11-17T02:03:38.042Z,10.00
2022-11-17T02:06:16.534Z,9.87
2022-11-17T02:08:49.947Z,10.38
2022-11-17T02:11:22.784Z,10.53
2022-11-17T02:13:56.455Z,10.13
2022-11-17T02:16:29.179Z,10.00
2022-11-17T02:19:02.240Z,11.08
2022-11-17T02:22:22.036Z,10.72
2022-11-17T02:25:34.076Z,10.60
2022-11-17T02:28:32.631Z,9.95
2022-11-17T02:31:27.699Z,11.15
2022-11-17T02:37:18.878Z,10.88
2022-11-17T02:40:11.448Z,10.82
2022-11-17T02:43:12.995Z,10.23
2022-11-17T02:46:01.258Z,10.43
2022-11-17T02:48:38.058Z,11.18
2022-11-17T02:51:15.399Z,11.08
2022-11-17T02:53:48.777Z,10.63
2022-11-17T02:56:21.918Z,10.58
2022-11-17T02:59:01.245Z,11.43
2022-11-17T03:01:47.542Z,11.85
2022-11-17T03:04:34.353Z,11.10
2022-11-17T03:07:26.530Z,11.22
2022-11-17T03:10:13.573Z,10.38
2022-11-17T03:13:03.757Z,10.53
2022-11-17T03:15:56.302Z,11.55
2022-11-17T03:19:03.744Z,11.35
2022-11-17T03:21:47.325Z,12.30
2022-11-17T03:24:34.361Z,11.73
2022-11-17T03:27:29.767Z,10.78
2022-11-17T03:30:08.207Z,11.18
2022-11-17T03:32:43.327Z,11.97
2022-11-17T03:35:20.558Z,12.35
2022-11-17T03:38:16.648Z,12.43
2022-11-17T03:40:49.891Z,11.05
2022-11-17T03:43:22.469Z,11.48
2022-11-17T03:45:57.250Z,11.88
2022-11-17T03:48:47.200Z,11.90
2022-11-17T03:51:23.946Z,12.07
2022-11-17T03:53:56.528Z,12.90
2022-11-17T03:56:50.041Z,11.93
2022-11-17T03:59:31.772Z,11.60
2022-11-17T04:02:04.493Z,12.73
2022-11-17T04:04:54.624Z,11.38
2022-11-17T04:07:27.217Z,12.55
2022-11-17T04:10:00.786Z,12.40
2022-11-17T04:12:51.665Z,12.45
2022-11-17T04:15:42.464Z,12.50
2022-11-17T04:18:15.301Z,11.85
2022-11-17T04:20:54.675Z,12.33
2022-11-17T04:23:28.305Z,12.25
2022-11-17T04:26:19.696Z,12.18
2022-11-17T04:28:53.652Z,11.55
2022-11-17T04:31:29.625Z,13.18
2022-11-17T04:34:06.698Z,12.33
2022-11-17T04:36:44.139Z,13.53
2022-11-17T04:39:17.239Z,12.78
2022-11-17T04:41:57.164Z,12.70
2022-11-17T04:44:30.709Z,13.00
2022-11-17T04:47:04.447Z,15.48
2022-11-17T04:49:37.805Z,14.43
2022-11-17T04:52:10.407Z,14.75
2022-11-17T04:54:43.308Z,15.08
2022-11-17T04:57:17.651Z,15.55
2022-11-17T04:59:50.039Z,15.33
2022-11-17T05:02:22.453Z,14.85
2022-11-17T05:04:58.158Z,15.30
2022-11-17T05:07:30.796Z,15.72
2022-11-17T05:10:03.381Z,15.80
2022-11-17T05:12:53.941Z,15.15
2022-11-17T05:15:28.083Z,15.15
2022-11-17T05:18:00.648Z,15.58
2022-11-17T05:20:34.706Z,16.20
2022-11-17T05:23:26.608Z,15.38
2022-11-17T05:25:59.181Z,16.37
2022-11-17T05:28:34.520Z,15.75
2022-11-17T05:31:07.136Z,14.50
2022-11-17T05:33:41.554Z,15.78
2022-11-17T05:36:14.695Z,16.25
2022-11-17T05:38:48.663Z,16.45
2022-11-17T05:41:21.426Z,16.27
2022-11-17T05:43:54.183Z,16.00
2022-11-17T05:46:27.108Z,15.85
2022-11-17T05:48:59.619Z,17.42
2022-11-17T05:51:32.680Z,15.50
2022-11-17T05:54:05.948Z,15.80
2022-11-17T05:56:56.228Z,15.75
2022-11-17T05:59:33.460Z,15.08
2022-11-17T06:02:27.696Z,15.13
2022-11-17T06:05:00.646Z,14.95
2022-11-17T06:07:33.838Z,15.32
2022-11-17T06:10:28.344Z,16.55
2022-11-17T06:13:01.503Z,15.65
2022-11-17T06:15:37.024Z,14.63
2022-11-17T06:18:13.884Z,14.33
2022-11-17T06:20:50.250Z,13.72
2022-11-17T06:23:24.883Z,14.73
2022-11-17T06:25:57.720Z,15.98
2022-11-17T06:28:30.267Z,14.25
2022-11-17T06:31:03.272Z,15.35
2022-11-17T06:33:36.512Z,15.55
2022-11-17T06:36:10.065Z,14.50
2022-11-17T06:38:43.222Z,15.48
2022-11-17T06:41:17.075Z,15.28
2022-11-17T06:43:49.710Z,17.52
2022-11-17T06:46:22.449Z,14.83
2022-11-17T06:48:56.658Z,15.35
2022-11-17T06:51:29.963Z,16.73
2022-11-17T06:54:05.064Z,16.00
2022-11-17T06:56:37.663Z,17.48
2022-11-17T06:59:10.109Z,15.60
2022-11-17T10:23:55.438Z,14.13
2022-11-17T10:26:28.513Z,14.38
2022-11-17T10:29:13.808Z,13.55
2022-11-17T10:31:47.599Z,14.75
2022-11-17T10:34:41.403Z,13.55
2022-11-17T10:37:26.539Z,13.18
2022-11-17T10:40:25.256Z,14.10
2022-11-17T10:43:18.452Z,13.48
2022-11-17T10:46:00.249Z,13.88
2022-11-17T10:48:40.252Z,13.00
2022-11-17T10:51:22.862Z,13.68
2022-11-17T10:54:22.782Z,15.08
2022-11-17T10:56:57.987Z,14.10
2022-11-17T10:59:56.539Z,14.23
2022-11-17T11:02:39.938Z,14.00
2022-11-17T11:05:19.101Z,13.38
2022-11-17T11:07:53.520Z,13.62
2022-11-17T11:10:36.375Z,13.43
2022-11-17T11:13:22.807Z,13.05
2022-11-17T11:15:56.463Z,14.58
2022-11-17T11:18:30.652Z,13.08
2022-11-17T11:21:24.229Z,14.00
2022-11-17T11:24:30.417Z,14.28
2022-11-17T11:27:47.612Z,12.80
2022-11-17T11:30:20.687Z,12.43
2022-11-17T11:33:21.945Z,12.65
2022-11-17T11:36:03.395Z,12.60
2022-11-17T11:38:52.601Z,12.28
2022-11-17T11:44:57.295Z,13.53
2022-11-17T11:48:04.725Z,12.88
2022-11-17T11:50:54.317Z,12.18
2022-11-17T11:53:54.484Z,12.23
2022-11-17T11:56:36.947Z,12.30
2022-11-17T11:59:21.784Z,13.55
2022-11-17T12:02:17.351Z,13.10
2022-11-17T12:05:30.437Z,13.00
2022-11-17T12:08:23.015Z,13.10
2022-11-17T12:11:28.340Z,13.00
2022-11-17T12:14:01.343Z,13.13
2022-11-17T12:16:36.276Z,12.18
2022-11-17T12:22:09.489Z,12.18
2022-11-17T12:24:43.295Z,11.63
2022-11-17T12:27:39.730Z,12.43
2022-11-17T12:30:38.800Z,12.40
2022-11-17T12:33:12.708Z,12.85
2022-11-17T12:35:45.336Z,12.47
2022-11-17T12:38:22.594Z,12.55
2022-11-17T12:40:56.987Z,12.73
2022-11-17T12:43:30.724Z,12.45
2022-11-17T12:46:16.390Z,12.53
2022-11-17T12:48:59.612Z,13.62
2022-11-17T12:51:42.873Z,12.43
2022-11-17T12:54:44.443Z,12.37
2022-11-17T12:57:24.523Z,11.97
2022-11-17T13:00:03.602Z,12.43
2022-11-17T13:03:08.340Z,12.28
2022-11-17T16:06:42.792Z,12.47
2022-11-17T16:09:16.707Z,12.18
2022-11-17T16:14:24.394Z,12.58
2022-11-17T16:16:57.033Z,11.00
2022-11-17T16:19:29.877Z,11.08
2022-11-17T16:22:02.336Z,12.15
2022-11-17T16:24:34.787Z,11.48
2022-11-17T16:27:07.186Z,11.50
2022-11-17T16:29:39.566Z,11.53
2022-11-17T16:32:12.209Z,11.88
2022-11-17T16:34:46.198Z,11.88
2022-11-17T16:37:18.626Z,11.57
2022-11-17T16:39:51.319Z,10.98
2022-11-17T16:42:24.160Z,11.93
2022-11-17T16:44:57.353Z,11.30
2022-11-17T16:47:30.017Z,11.93
2022-11-17T16:50:04.332Z,10.93
2022-11-17T16:52:36.893Z,10.50
2022-11-17T16:55:10.695Z,11.45
2022-11-17T16:57:43.620Z,10.85
2022-11-17T17:00:18.562Z,11.28
2022-11-17T17:02:51.602Z,11.45
2022-11-17T17:05:26.520Z,11.12
2022-11-17T17:07:59.494Z,11.70
2022-11-17T17:10:34.508Z,11.55
2022-11-17T17:13:07.517Z,11.28
2022-11-17T17:15:40.068Z,11.68
2022-11-17T17:18:12.853Z,11.48
2022-11-17T17:20:53.682Z,11.48
2022-11-17T17:23:26.664Z,11.65
2022-11-17T17:26:07.688Z,11.45
2022-11-17T17:28:40.690Z,10.72
2022-11-17T17:31:20.740Z,10.28
2022-11-17T17:33:50.242Z,10.55
2022-11-17T17:36:26.173Z,12.07
2022-11-17T17:39:02.588Z,10.60
2022-11-17T17:41:38.352Z,10.93
2022-11-17T17:44:19.287Z,10.98
2022-11-17T17:46:52.347Z,10.40
2022-11-17T17:49:25.718Z,11.57
2022-11-17T17:51:58.277Z,10.82
2022-11-17T17:54:30.827Z,11.30
2022-11-17T17:57:03.282Z,10.72
2022-11-17T17:59:35.717Z,10.88
2022-11-17T18:02:10.599Z,10.98
2022-11-17T18:04:43.031Z,10.28
2022-11-17T18:07:15.519Z,9.78
2022-11-17T18:09:48.059Z,10.53
2022-11-17T18:12:20.561Z,10.50
2022-11-17T18:14:54.123Z,10.28
2022-11-17T18:17:26.684Z,9.88
2022-11-17T18:20:00.188Z,10.70
2022-11-17T18:25:07.923Z,10.00
2022-11-17T18:27:40.718Z,9.58
2022-11-17T18:30:14.489Z,9.95
2022-11-17T18:32:49.087Z,9.73
2022-11-17T18:35:21.619Z,8.80
2022-11-17T18:37:54.713Z,9.90
2022-11-17T18:40:27.429Z,10.08
2022-11-17T18:43:03.900Z,11.70
2022-11-17T18:45:38.708Z,10.45
2022-11-17T18:48:11.161Z,9.85
2022-11-17T18:51:17.233Z,9.83
2022-11-17T18:53:19.984Z,11.28
2022-11-17T18:55:52.401Z,9.35
2022-11-17T18:58:24.725Z,9.58
2022-11-17T19:00:58.455Z,10.15
2022-11-17T19:03:30.834Z,9.58
2022-11-17T19:06:04.094Z,9.88
2022-11-17T19:08:36.953Z,9.70
2022-11-17T19:11:11.819Z,8.58
2022-11-17T22:31:00.533Z,6.25
2022-11-17T22:33:34.379Z,7.42
2022-11-17T22:36:07.940Z,5.65
2022-11-17T22:38:40.743Z,6.20
2022-11-17T22:41:15.493Z,6.53
2022-11-17T22:43:56.195Z,7.78
2022-11-17T22:46:29.451Z,6.55
2022-11-17T22:49:02.018Z,6.90
2022-11-17T22:51:52.941Z,6.37
2022-11-17T22:54:26.240Z,6.42
2022-11-17T22:56:59.397Z,7.22
2022-11-17T22:59:33.153Z,6.55
2022-11-17T23:02:05.729Z,5.80
2022-11-17T23:04:38.591Z,5.85
2022-11-17T23:07:11.347Z,6.17
2022-11-17T23:09:44.917Z,6.35
2022-11-17T23:12:17.710Z,6.22
2022-11-17T23:14:51.472Z,5.87
2022-11-17T23:17:24.980Z,5.95
2022-11-17T23:19:59.885Z,5.65
2022-11-17T23:22:34.372Z,5.83
2022-11-17T23:25:07.542Z,6.00
2022-11-17T23:27:40.715Z,6.08
2022-11-17T23:30:14.691Z,5.67
2022-11-17T23:32:49.136Z,6.92
2022-11-17T23:35:22.512Z,6.05
2022-11-17T23:37:55.187Z,6.37
2022-11-17T23:40:28.702Z,6.15
2022-11-17T23:43:02.223Z,6.80
2022-11-17T23:45:35.285Z,6.10
2022-11-17T23:48:28.372Z,5.90
2022-11-17T23:51:02.612Z,6.42
2022-11-17T23:56:09.503Z,6.20
2022-11-17T23:58:43.231Z,6.72
